Time;durP1;ratioP1;P1;durP2;ratioP2;P2;SDS_P1;SDS_P2;PMS_P1;PMS_P2;Temp;Humidity;BMP_temperature;BMP_pressure;BME280_temperature;BME280_humidity;BME280_pressure;Samples;Min_cycle;Max_cycle;Signal;HPM_P1;HPM_P2
2022/07/01 00:00:37;;;;;;;9.80;4.33;;;19.50;71.20;;;;;;5010726;28;20290;-67
2022/07/01 00:03:03;;;;;;;7.43;4.30;;;19.40;73.50;;;;;;5011033;28;20426;-67
2022/07/01 00:05:29;;;;;;;7.00;4.53;;;19.80;72.30;;;;;;5010277;28;20443;-67
2022/07/01 00:07:55;;;;;;;8.00;4.57;;;19.90;69.30;;;;;;5001722;28;20523;-67
2022/07/01 00:10:21;;;;;;;6.77;3.90;;;19.90;69.60;;;;;;5011103;28;20639;-67
2022/07/01 00:12:46;;;;;;;12.23;4.20;;;19.40;73.70;;;;;;5011240;28;20181;-68
2022/07/01 00:15:12;;;;;;;5.33;3.87;;;19.20;72.40;;;;;;5010597;28;20212;-67
2022/07/01 00:17:39;;;;;;;17.60;3.70;;;19.20;74.10;;;;;;5010601;28;20181;-67
2022/07/01 00:20:07;;;;;;;7.63;4.00;;;19.10;75.20;;;;;;5011523;28;20429;-68
2022/07/01 00:22:34;;;;;;;11.00;4.07;;;19.70;69.30;;;;;;5011331;28;20429;-67
2022/07/01 00:25:00;;;;;;;10.83;4.00;;;20.00;66.10;;;;;;5010499;28;20415;-67
2022/07/01 00:27:25;;;;;;;8.60;3.57;;;19.60;67.00;;;;;;5010948;28;20799;-67
2022/07/01 00:29:51;;;;;;;5.83;3.60;;;18.90;73.70;;;;;;5010055;28;20219;-67
2022/07/01 00:32:17;;;;;;;8.53;3.60;;;18.90;75.60;;;;;;5001333;28;20662;-67
2022/07/01 00:34:43;;;;;;;6.40;3.50;;;18.60;79.50;;;;;;5002415;28;20215;-67
2022/07/01 00:37:08;;;;;;;4.40;3.77;;;19.30;69.60;;;;;;5010457;28;20505;-67
2022/07/01 00:39:35;;;;;;;8.83;3.83;;;19.30;71.00;;;;;;5014512;28;20575;-67
2022/07/01 00:42:04;;;;;;;14.90;3.40;;;19.50;70.80;;;;;;5005676;28;20265;-68
2022/07/01 00:44:30;;;;;;;5.33;3.30;;;19.90;62.20;;;;;;5008518;28;20440;-67
2022/07/01 00:47:00;;;;;;;4.97;3.70;;;19.50;65.30;;;;;;5003437;28;20446;-67
2022/07/01 00:49:26;;;;;;;3.90;3.20;;;19.70;69.10;;;;;;4995073;28;20931;-68
2022/07/01 00:51:53;;;;;;;7.50;4.10;;;19.40;63.30;;;;;;4996752;28;20568;-67
2022/07/01 00:54:20;;;;;;;7.80;3.30;;;18.80;69.60;;;;;;5014444;28;20511;-67
2022/07/01 00:56:46;;;;;;;9.43;3.57;;;18.40;73.10;;;;;;5014640;28;20410;-68
2022/07/01 00:59:12;;;;;;;5.83;2.90;;;18.10;76.80;;;;;;5002212;28;20437;-67
2022/07/01 01:01:38;;;;;;;3.30;2.47;;;18.20;75.00;;;;;;4994477;28;20420;-69
2022/07/01 01:04:04;;;;;;;3.47;2.83;;;17.80;75.80;;;;;;5011053;28;20833;-67
2022/07/01 01:06:30;;;;;;;3.50;2.80;;;17.70;78.10;;;;;;5009132;28;20570;-68
2022/07/01 01:08:55;;;;;;;5.83;2.47;;;17.70;78.10;;;;;;5009900;28;20582;-67
2022/07/01 01:11:21;;;;;;;8.83;3.37;;;17.90;76.00;;;;;;5012748;28;20201;-67
2022/07/01 01:13:47;;;;;;;7.63;3.23;;;17.90;76.20;;;;;;5013246;28;20246;-66
2022/07/01 01:16:20;;;;;;;10.53;2.87;;;17.70;76.00;;;;;;5013835;28;20178;-67
2022/07/01 01:18:46;;;;;;;5.40;3.03;;;17.50;77.60;;;;;;5013824;28;20838;-67
2022/07/01 01:21:12;;;;;;;3.57;2.93;;;17.70;80.50;;;;;;5014120;28;20428;-67
2022/07/01 01:23:38;;;;;;;5.73;3.00;;;17.80;74.80;;;;;;5012426;28;20823;-66
2022/07/01 01:26:13;;;;;;;8.03;2.97;;;18.00;75.50;;;;;;5014069;28;20217;-67
2022/07/01 01:28:39;;;;;;;3.80;2.93;;;18.40;72.70;;;;;;5013635;28;20444;-67
2022/07/01 01:31:05;;;;;;;4.50;3.10;;;18.70;68.90;;;;;;5012471;28;20473;-67
2022/07/01 01:33:31;;;;;;;4.60;3.23;;;18.80;68.50;;;;;;5012896;28;20173;-69
2022/07/01 01:35:56;;;;;;;3.33;2.90;;;19.10;69.20;;;;;;4987497;28;20202;-70
2022/07/01 01:38:22;;;;;;;3.80;2.67;;;19.20;65.40;;;;;;5013658;28;20449;-67
2022/07/01 01:40:49;;;;;;;5.17;2.87;;;19.40;64.20;;;;;;4995330;28;20204;-67
2022/07/01 01:43:16;;;;;;;3.97;2.80;;;19.70;60.40;;;;;;5012949;28;20178;-67
2022/07/01 01:45:41;;;;;;;3.00;2.70;;;19.30;59.70;;;;;;5013778;28;20415;-67
2022/07/01 01:48:07;;;;;;;5.73;2.90;;;18.50;64.20;;;;;;5013603;28;20429;-67
2022/07/01 01:50:33;;;;;;;3.87;2.70;;;18.20;70.00;;;;;;5011770;28;20220;-68
2022/07/01 01:52:58;;;;;;;3.70;2.60;;;18.20;69.60;;;;;;5012543;28;20657;-67
2022/07/01 01:55:24;;;;;;;3.33;2.50;;;18.10;69.10;;;;;;5013266;28;20184;-67
2022/07/01 01:57:49;;;;;;;3.43;2.70;;;18.50;68.60;;;;;;5012366;28;20642;-67
2022/07/01 02:00:15;;;;;;;5.10;3.07;;;18.60;66.20;;;;;;5004320;28;20248;-67
2022/07/01 02:02:41;;;;;;;10.13;2.70;;;18.50;67.60;;;;;;5011955;28;20186;-66
2022/07/01 02:05:10;;;;;;;6.03;3.00;;;18.60;68.60;;;;;;5012714;28;20185;-66
2022/07/01 02:07:35;;;;;;;4.83;3.30;;;18.70;67.80;;;;;;5013055;28;20182;-67
2022/07/01 02:10:01;;;;;;;8.43;3.20;;;18.60;70.80;;;;;;5013064;28;20529;-68
2022/07/01 02:12:27;;;;;;;6.80;3.90;;;18.90;69.50;;;;;;5012165;28;20265;-66
2022/07/01 02:14:52;;;;;;;5.20;3.60;;;19.10;67.00;;;;;;5011632;28;20187;-66
2022/07/01 02:17:18;;;;;;;5.43;3.00;;;19.20;64.70;;;;;;4995681;28;20542;-67
2022/07/01 02:19:43;;;;;;;3.70;2.93;;;19.00;67.10;;;;;;5012041;28;20253;-67
2022/07/01 02:22:09;;;;;;;5.27;3.37;;;19.10;64.40;;;;;;4994278;28;20241;-67
2022/07/01 02:24:35;;;;;;;5.33;2.90;;;18.80;64.60;;;;;;5011481;28;20191;-70
2022/07/01 02:27:00;;;;;;;8.20;2.80;;;18.60;63.30;;;;;;4996106;28;20187;-67
2022/07/01 02:29:26;;;;;;;4.23;2.93;;;18.30;68.90;;;;;;5012809;28;20198;-67
2022/07/01 02:31:51;;;;;;;5.60;3.07;;;18.20;68.60;;;;;;5012734;28;20228;-67
2022/07/01 02:34:17;;;;;;;4.10;2.60;;;18.50;70.60;;;;;;5011042;28;20188;-67
2022/07/01 02:36:43;;;;;;;5.30;3.17;;;18.80;66.80;;;;;;5012541;28;20646;-67
2022/07/01 02:39:08;;;;;;;4.10;3.07;;;19.00;67.30;;;;;;5012333;28;20270;-67
2022/07/01 02:42:22;;;;;;;5.83;2.60;;;19.20;64.50;;;;;;5003272;28;20544;-67
2022/07/01 02:44:20;;;;;;;10.17;3.00;;;19.40;60.00;;;;;;5011874;28;20188;-67
2022/07/01 02:46:45;;;;;;;3.10;2.63;;;19.00;65.80;;;;;;5011414;28;20434;-67
2022/07/01 02:49:11;;;;;;;2.73;2.00;;;19.40;63.80;;;;;;5012457;28;20605;-67
2022/07/01 02:51:36;;;;;;;2.87;2.33;;;19.30;55.90;;;;;;5012217;28;20242;-66
2022/07/01 02:54:04;;;;;;;6.07;2.70;;;18.90;58.00;;;;;;5010874;28;20189;-68
2022/07/01 02:56:30;;;;;;;3.40;2.10;;;18.50;62.80;;;;;;5011576;28;20208;-66
2022/07/01 02:58:56;;;;;;;5.60;2.40;;;17.90;65.10;;;;;;5012311;28;20822;-67
2022/07/01 03:01:22;;;;;;;7.87;2.47;;;18.10;67.20;;;;;;5011367;28;20219;-67
2022/07/01 03:03:48;;;;;;;3.43;2.40;;;18.40;66.20;;;;;;5011089;28;20186;-68
2022/07/01 03:06:15;;;;;;;5.80;3.07;;;18.70;62.30;;;;;;5011746;28;20442;-67
2022/07/01 03:08:40;;;;;;;7.47;3.00;;;18.10;66.40;;;;;;5011592;28;20510;-66
2022/07/01 03:11:06;;;;;;;3.60;2.67;;;17.60;72.70;;;;;;5003271;28;20663;-66
2022/07/01 03:13:31;;;;;;;3.33;2.50;;;17.30;73.90;;;;;;5011158;28;20191;-67
2022/07/01 03:15:57;;;;;;;3.50;2.83;;;17.30;74.40;;;;;;5002944;28;20193;-67
2022/07/01 03:18:23;;;;;;;9.70;3.03;;;17.40;76.60;;;;;;5011745;28;20569;-68
2022/07/01 03:20:51;;;;;;;4.50;2.90;;;18.00;73.20;;;;;;4995092;28;20252;-67
2022/07/01 03:23:17;;;;;;;3.83;2.43;;;18.30;68.30;;;;;;4999615;28;20458;-66
2022/07/01 03:25:42;;;;;;;3.13;2.33;;;18.00;69.00;;;;;;5011063;28;20539;-66
2022/07/01 03:28:08;;;;;;;4.20;2.97;;;18.30;62.40;;;;;;5010084;28;20633;-67
2022/07/01 03:30:34;;;;;;;7.30;2.40;;;18.00;65.10;;;;;;5010483;28;20247;-67
2022/07/01 03:32:59;;;;;;;8.80;2.67;;;17.90;67.30;;;;;;5011446;28;20567;-67
2022/07/01 03:35:39;;;;;;;7.10;2.50;;;18.00;66.10;;;;;;5010761;28;20179;-68
2022/07/01 03:38:06;;;;;;;3.37;2.70;;;17.60;65.90;;;;;;5011625;28;20693;-67
2022/07/01 03:40:32;;;;;;;3.93;2.50;;;18.10;68.20;;;;;;5010812;28;20519;-67
2022/07/01 03:42:58;;;;;;;3.27;2.60;;;18.30;65.10;;;;;;5011313;28;20423;-67
2022/07/01 03:45:23;;;;;;;4.23;2.60;;;18.70;63.70;;;;;;5010155;28;20445;-67
2022/07/01 03:47:50;;;;;;;6.03;2.70;;;18.80;61.50;;;;;;5011271;28;20456;-67
2022/07/01 03:50:16;;;;;;;4.73;2.40;;;18.70;62.00;;;;;;5011087;28;20205;-66
2022/07/01 03:52:42;;;;;;;5.43;2.87;;;18.50;61.60;;;;;;5010590;28;20514;-68
2022/07/01 03:55:09;;;;;;;3.30;2.80;;;18.10;66.80;;;;;;5001234;28;20429;-67
2022/07/01 03:57:35;;;;;;;5.13;2.70;;;18.30;65.20;;;;;;5010997;28;20411;-67
2022/07/01 04:00:01;;;;;;;6.43;2.70;;;18.70;64.60;;;;;;5009663;28;20841;-67
2022/07/01 04:02:26;;;;;;;8.50;2.50;;;19.00;63.00;;;;;;5004018;28;20178;-67
2022/07/01 04:04:52;;;;;;;6.80;2.67;;;19.10;62.00;;;;;;5008981;28;20181;-69
2022/07/01 04:07:18;;;;;;;5.10;2.73;;;19.10;58.00;;;;;;5011080;28;20188;-67
2022/07/01 04:09:43;;;;;;;7.93;3.00;;;18.20;64.90;;;;;;5011402;28;20678;-67
2022/07/01 04:12:12;;;;;;;4.40;2.60;;;18.30;67.60;;;;;;5011056;28;20630;-66
2022/07/01 04:14:38;;;;;;;4.50;2.60;;;18.60;68.10;;;;;;5015299;28;20231;-67
2022/07/01 04:17:03;;;;;;;9.73;2.80;;;19.00;60.50;;;;;;5014115;28;20456;-67
2022/07/01 04:19:30;;;;;;;5.30;2.40;;;19.30;59.60;;;;;;5014473;28;20475;-70
2022/07/01 04:24:39;;;;;;;7.47;2.77;;;18.90;62.10;;;;;;5014667;28;20524;-68
2022/07/01 04:27:05;;;;;;;2.93;2.50;;;19.20;62.10;;;;;;5012278;28;21004;-67
2022/07/01 04:29:31;;;;;;;5.70;2.50;;;19.40;57.50;;;;;;5014872;28;20206;-67
2022/07/01 04:31:57;;;;;;;4.93;2.60;;;19.40;59.10;;;;;;5014976;28;20563;-68
2022/07/01 04:34:23;;;;;;;5.70;2.30;;;19.70;55.60;;;;;;5013153;28;20217;-67
2022/07/01 04:36:49;;;;;;;5.93;2.73;;;19.70;53.50;;;;;;5011804;28;20920;-68
2022/07/01 04:39:15;;;;;;;11.13;2.80;;;19.70;55.30;;;;;;5012714;28;20530;-68
2022/07/01 04:41:59;;;;;;;12.40;2.80;;;19.60;58.00;;;;;;5014779;28;20185;-67
2022/07/01 04:44:25;;;;;;;3.20;2.63;;;19.40;57.50;;;;;;5015269;28;20618;-66
2022/07/01 04:46:50;;;;;;;5.90;2.73;;;19.50;57.40;;;;;;5014197;28;20416;-66
2022/07/01 04:49:16;;;;;;;3.90;2.70;;;19.40;60.00;;;;;;5013027;28;20479;-67
2022/07/01 04:51:42;;;;;;;3.17;2.37;;;19.50;58.50;;;;;;5014395;28;20240;-67
2022/07/01 04:54:08;;;;;;;5.13;2.90;;;18.80;60.50;;;;;;5005786;28;20553;-67
2022/07/01 04:56:35;;;;;;;4.17;2.60;;;18.80;64.70;;;;;;5014596;28;20421;-67
2022/07/01 04:59:01;;;;;;;3.50;2.80;;;19.20;58.70;;;;;;5013020;28;20987;-67
2022/07/01 05:01:28;;;;;;;5.33;2.77;;;19.40;60.10;;;;;;5011814;28;20975;-66
2022/07/01 05:03:54;;;;;;;3.33;2.60;;;19.50;57.40;;;;;;5014181;28;20427;-69
2022/07/01 05:06:20;;;;;;;7.60;3.10;;;19.60;55.50;;;;;;5014062;28;20422;-67
2022/07/01 05:08:45;;;;;;;3.60;2.90;;;19.50;57.40;;;;;;5014249;28;20456;-67
2022/07/01 05:11:11;;;;;;;6.40;3.00;;;19.20;60.50;;;;;;5014172;28;20202;-67
2022/07/01 05:13:37;;;;;;;5.30;2.60;;;19.10;60.20;;;;;;5011081;28;20180;-66
2022/07/01 05:16:03;;;;;;;9.37;3.30;;;19.30;59.10;;;;;;5014179;28;20174;-67
2022/07/01 05:23:59;;;;;;;5.90;2.90;;;19.60;54.70;;;;;;5012605;28;20514;-67
2022/07/01 05:26:25;;;;;;;4.00;2.67;;;19.50;56.40;;;;;;5014059;28;20409;-67
2022/07/01 05:28:52;;;;;;;5.17;2.90;;;19.20;58.30;;;;;;5013237;28;20705;-67
2022/07/01 05:31:18;;;;;;;6.17;2.83;;;19.00;58.60;;;;;;5013731;28;20444;-67
2022/07/01 05:33:43;;;;;;;2.90;2.60;;;18.60;63.40;;;;;;5012615;28;20502;-66
2022/07/01 05:36:10;;;;;;;3.47;2.47;;;18.70;61.50;;;;;;5013859;28;20895;-66
2022/07/01 05:38:35;;;;;;;4.33;2.50;;;18.70;64.00;;;;;;5012600;28;20182;-69
2022/07/01 05:41:01;;;;;;;3.40;2.50;;;19.10;59.30;;;;;;5013728;28;20791;-67
2022/07/01 05:43:27;;;;;;;3.73;2.30;;;19.10;58.90;;;;;;5004208;28;20260;-67
2022/07/01 05:45:52;;;;;;;4.03;2.33;;;18.50;61.50;;;;;;5003870;28;20654;-68
2022/07/01 05:48:18;;;;;;;4.40;2.47;;;17.80;68.60;;;;;;5013104;28;20174;-67
2022/07/01 05:50:44;;;;;;;7.40;2.57;;;17.80;71.10;;;;;;5012453;28;20216;-67
2022/07/01 05:53:09;;;;;;;2.70;2.50;;;18.10;71.40;;;;;;4996981;28;20204;-67
2022/07/01 05:55:35;;;;;;;3.37;2.53;;;18.60;67.40;;;;;;4997458;28;20185;-67
2022/07/01 05:58:01;;;;;;;9.83;2.40;;;19.10;60.10;;;;;;4986588;28;20212;-67
2022/07/01 06:00:28;;;;;;;4.30;2.70;;;19.30;61.10;;;;;;5013135;28;20456;-67
2022/07/01 06:02:53;;;;;;;3.23;2.30;;;19.40;58.50;;;;;;5013088;28;20423;-67
2022/07/01 06:05:19;;;;;;;3.20;2.67;;;19.10;60.70;;;;;;5013424;28;20415;-67
2022/07/01 06:07:45;;;;;;;3.30;2.47;;;19.10;61.60;;;;;;5011389;28;20188;-68
2022/07/01 06:10:11;;;;;;;3.27;2.70;;;19.20;62.50;;;;;;5013224;28;20205;-66
2022/07/01 06:12:40;;;;;;;2.87;2.30;;;19.40;61.90;;;;;;5012998;28;20405;-67
2022/07/01 06:15:07;;;;;;;3.60;2.70;;;19.40;59.50;;;;;;5012292;28;20177;-66
2022/07/01 06:17:37;;;;;;;3.60;2.70;;;19.50;60.90;;;;;;5010003;28;20463;-69
2022/07/01 06:20:04;;;;;;;5.97;2.70;;;19.60;61.00;;;;;;5013045;28;20450;-68
2022/07/01 06:22:30;;;;;;;9.73;2.20;;;19.10;60.80;;;;;;5012234;28;20420;-67
2022/07/01 06:24:56;;;;;;;5.40;2.90;;;19.60;57.50;;;;;;5012893;28;20974;-67
2022/07/01 06:27:23;;;;;;;5.53;2.60;;;19.70;59.60;;;;;;4994003;28;20443;-67
2022/07/01 06:29:49;;;;;;;6.30;3.03;;;19.80;61.10;;;;;;5012531;28;20260;-67
2022/07/01 06:32:14;;;;;;;2.70;2.30;;;19.50;60.60;;;;;;5010939;28;20522;-67
2022/07/01 06:34:40;;;;;;;4.67;2.50;;;19.40;61.50;;;;;;5004871;28;20669;-67
2022/07/01 06:37:06;;;;;;;3.73;2.50;;;19.40;60.60;;;;;;5010064;28;20519;-68
2022/07/01 06:39:31;;;;;;;9.50;2.40;;;19.50;59.70;;;;;;5010692;28;20205;-66
2022/07/01 06:41:57;;;;;;;4.47;2.47;;;16.40;58.90;;;;;;5012434;28;20228;-66
2022/07/01 06:44:22;;;;;;;3.60;2.40;;;19.50;59.80;;;;;;5003421;28;20187;-66
2022/07/01 06:46:48;;;;;;;4.27;2.80;;;19.50;59.90;;;;;;5012666;28;20184;-68
2022/07/01 06:49:14;;;;;;;2.23;2.10;;;19.80;55.80;;;;;;5008193;28;20205;-66
2022/07/01 06:51:40;;;;;;;5.20;2.53;;;20.00;53.60;;;;;;5005434;28;20607;-67
2022/07/01 06:54:05;;;;;;;3.37;2.60;;;20.10;54.90;;;;;;5002238;28;20259;-67
2022/07/01 06:56:31;;;;;;;2.30;2.07;;;19.90;56.70;;;;;;5005000;28;20438;-67
2022/07/01 06:58:56;;;;;;;2.73;2.10;;;19.80;56.60;;;;;;5003944;28;20264;-67
2022/07/01 07:01:23;;;;;;;4.00;2.23;;;19.50;57.90;;;;;;5003610;28;20647;-67
2022/07/01 07:03:49;;;;;;;3.90;2.23;;;19.30;57.80;;;;;;5010306;28;20727;-67
2022/07/01 07:06:15;;;;;;;4.50;2.37;;;19.30;63.40;;;;;;5009695;28;20498;-67
2022/07/01 07:08:41;;;;;;;3.27;2.40;;;19.70;57.60;;;;;;5002741;28;20444;-68
2022/07/01 07:11:08;;;;;;;2.53;2.27;;;19.90;57.80;;;;;;5006771;28;20273;-67
2022/07/01 07:13:35;;;;;;;4.70;2.30;;;19.90;57.60;;;;;;5001598;28;20269;-66
2022/07/01 07:16:01;;;;;;;4.50;2.30;;;19.80;59.50;;;;;;5002432;28;21204;-68
2022/07/01 07:18:26;;;;;;;3.50;2.20;;;19.20;60.80;;;;;;4999081;28;20438;-67
2022/07/01 07:20:52;;;;;;;3.57;2.33;;;19.00;60.30;;;;;;5007428;28;20202;-67
2022/07/01 07:23:18;;;;;;;5.20;2.10;;;19.00;54.70;;;;;;5011941;28;20199;-67
2022/07/01 07:25:43;;;;;;;3.50;2.13;;;18.30;63.20;;;;;;5012113;28;20174;-67
2022/07/01 07:28:09;;;;;;;5.57;2.30;;;18.60;64.70;;;;;;5007491;28;20179;-68
2022/07/01 07:30:35;;;;;;;3.27;2.43;;;18.90;64.40;;;;;;5006959;28;20219;-69
2022/07/01 07:33:01;;;;;;;2.60;2.20;;;18.90;60.40;;;;;;4995036;28;20423;-66
2022/07/01 07:35:27;;;;;;;3.60;2.60;;;19.00;62.10;;;;;;5006729;28;20200;-67
2022/07/01 07:37:52;;;;;;;4.50;2.33;;;19.30;62.20;;;;;;5010284;28;20228;-66
2022/07/01 07:40:18;;;;;;;4.07;2.73;;;19.40;60.00;;;;;;5010617;28;21044;-66
2022/07/01 07:42:46;;;;;;;4.93;3.30;;;19.70;59.80;;;;;;5009919;28;20179;-67
2022/07/01 07:45:13;;;;;;;3.73;2.67;;;19.60;60.00;;;;;;5011303;28;20429;-71
2022/07/01 07:47:45;;;;;;;5.73;2.70;;;19.70;61.10;;;;;;5011106;28;20522;-67
2022/07/01 07:50:11;;;;;;;5.43;2.53;;;19.70;61.60;;;;;;4993507;28;20470;-68
2022/07/01 07:52:38;;;;;;;3.00;2.27;;;19.70;58.50;;;;;;5045039;22;20490;-69
2022/07/01 07:55:05;;;;;;;5.27;2.70;;;19.50;57.50;;;;;;5027378;28;20520;-70
2022/07/01 07:57:31;;;;;;;2.10;1.80;;;19.50;60.80;;;;;;5030488;28;20846;-69
2022/07/01 07:59:57;;;;;;;2.50;1.90;;;19.10;56.50;;;;;;5031262;28;20419;-70
2022/07/01 08:02:22;;;;;;;2.30;2.00;;;18.70;59.00;;;;;;5019915;28;20251;-69
2022/07/01 08:04:48;;;;;;;2.70;2.00;;;18.30;59.00;;;;;;5007034;28;20198;-69
2022/07/01 08:07:14;;;;;;;2.13;1.93;;;18.40;60.30;;;;;;5011554;28;20194;-69
2022/07/01 08:09:41;;;;;;;4.47;2.17;;;18.60;63.10;;;;;;5009403;28;20566;-70
2022/07/01 08:12:07;;;;;;;2.90;2.20;;;18.90;63.50;;;;;;5008507;28;20193;-70
2022/07/01 08:14:33;;;;;;;3.97;2.33;;;19.20;62.90;;;;;;5008974;28;20436;-70
2022/07/01 08:16:59;;;;;;;4.80;2.60;;;19.30;61.60;;;;;;5010397;28;20433;-71
2022/07/01 08:19:24;;;;;;;4.00;2.23;;;19.50;60.90;;;;;;5007181;28;20250;-70
2022/07/01 08:21:50;;;;;;;3.00;2.33;;;19.20;56.60;;;;;;5007219;28;20210;-70
2022/07/01 08:24:15;;;;;;;3.63;2.13;;;18.00;56.00;;;;;;5006817;28;20624;-70
2022/07/01 08:26:41;;;;;;;2.50;1.93;;;17.40;63.80;;;;;;5005175;28;20191;-70
2022/07/01 08:29:07;;;;;;;3.60;2.43;;;17.40;65.80;;;;;;5007774;28;20352;-70
2022/07/01 08:31:32;;;;;;;2.00;1.67;;;17.20;63.10;;;;;;5004462;28;20178;-71
2022/07/01 08:33:58;;;;;;;3.73;1.90;;;17.20;62.50;;;;;;5007751;28;20181;-70
2022/07/01 08:36:24;;;;;;;2.27;2.03;;;16.80;66.20;;;;;;5009129;28;20706;-70
2022/07/01 08:38:49;;;;;;;2.30;2.07;;;16.80;71.00;;;;;;4991588;28;20242;-70
2022/07/01 08:41:17;;;;;;;2.53;1.90;;;17.00;69.60;;;;;;5010984;28;20592;-70
2022/07/01 08:43:43;;;;;;;5.20;1.93;;;17.40;65.90;;;;;;5011112;28;20533;-71
2022/07/01 08:46:08;;;;;;;2.10;1.90;;;17.80;61.40;;;;;;5008749;28;20725;-70
2022/07/01 08:48:34;;;;;;;3.73;2.03;;;17.90;62.90;;;;;;4986435;28;20189;-71
2022/07/01 08:51:03;;;;;;;4.10;2.00;;;17.70;63.90;;;;;;5006033;28;20266;-71
2022/07/01 08:53:31;;;;;;;2.03;1.80;;;17.70;64.40;;;;;;5003145;28;20473;-71
2022/07/01 08:58:41;;;;;;;4.63;1.93;;;18.40;61.40;;;;;;5008123;28;20435;-71
2022/07/01 09:01:21;;;;;;;2.83;2.03;;;18.40;60.20;;;;;;5012005;28;20825;-71
2022/07/01 09:03:52;;;;;;;5.10;1.83;;;18.90;56.90;;;;;;5013251;28;20177;-71
2022/07/01 09:06:23;;;;;;;2.23;1.80;;;19.20;54.90;;;;;;5014425;28;20408;-71
2022/07/01 09:08:49;;;;;;;3.63;2.10;;;19.40;52.00;;;;;;5006173;28;20467;-71
2022/07/01 09:11:17;;;;;;;2.30;2.00;;;19.40;54.00;;;;;;5012389;28;20443;-71
2022/07/01 09:13:44;;;;;;;3.23;2.20;;;19.70;52.00;;;;;;5013674;28;20421;-71
2022/07/01 09:16:17;;;;;;;2.50;2.20;;;19.40;55.40;;;;;;5014229;28;20405;-70
2022/07/01 09:19:03;;;;;;;10.60;2.40;;;19.50;58.10;;;;;;5010661;28;20447;-71
2022/07/01 09:21:30;;;;;;;2.87;2.10;;;19.50;55.30;;;;;;5005687;28;20512;-71
2022/07/01 09:24:17;;;;;;;2.73;2.13;;;19.50;56.30;;;;;;5008592;28;20432;-70
2022/07/01 09:27:13;;;;;;;3.17;2.13;;;19.70;51.10;;;;;;5000556;28;20483;-71
2022/07/01 09:29:59;;;;;;;2.90;2.03;;;19.60;54.40;;;;;;5005588;28;21009;-73
2022/07/01 09:32:24;;;;;;;2.53;2.00;;;19.30;55.20;;;;;;4993444;28;20483;-72
2022/07/01 09:34:53;;;;;;;3.17;2.37;;;19.20;57.10;;;;;;5007533;28;20473;-73
2022/07/01 09:37:21;;;;;;;5.10;2.50;;;19.20;57.20;;;;;;5010938;28;20238;-73
2022/07/01 09:39:57;;;;;;;4.83;2.30;;;19.20;57.70;;;;;;5011092;28;20447;-72
2022/07/01 09:42:25;;;;;;;4.70;2.23;;;19.30;59.20;;;;;;5011925;28;20444;-73
2022/07/01 09:45:07;;;;;;;2.67;1.97;;;19.20;58.60;;;;;;5012575;28;20436;-72
2022/07/01 09:47:34;;;;;;;2.70;2.17;;;18.80;52.60;;;;;;5007875;28;20432;-72
2022/07/01 09:50:01;;;;;;;3.00;2.20;;;18.30;59.70;;;;;;5011408;28;20464;-73
2022/07/01 09:52:27;;;;;;;3.93;2.50;;;18.00;58.60;;;;;;5012001;28;20462;-73
2022/07/01 09:54:53;;;;;;;2.83;2.10;;;17.40;65.70;;;;;;5011856;28;20432;-72
2022/07/01 09:57:20;;;;;;;3.57;2.20;;;17.70;66.90;;;;;;5005994;28;20494;-72
2022/07/01 09:59:47;;;;;;;2.50;2.07;;;17.80;59.90;;;;;;5012577;28;20193;-72
2022/07/01 10:02:13;;;;;;;3.70;2.83;;;17.90;64.70;;;;;;5011115;28;20450;-70
2022/07/01 10:04:46;;;;;;;4.50;2.30;;;18.30;55.80;;;;;;5012541;28;20945;-71
2022/07/01 10:07:55;;;;;;;5.93;2.43;;;18.10;65.30;;;;;;5013235;28;20420;-71
2022/07/01 10:10:42;;;;;;;2.47;2.03;;;18.50;61.50;;;;;;5013149;28;20456;-71
2022/07/01 10:13:11;;;;;;;2.17;2.00;;;18.20;61.40;;;;;;5010383;28;20522;-71
2022/07/01 10:15:40;;;;;;;2.63;2.20;;;18.70;60.10;;;;;;5006975;28;20846;-71
2022/07/01 10:18:17;;;;;;;3.20;2.10;;;19.10;59.70;;;;;;5012935;28;20410;-71
2022/07/01 10:20:47;;;;;;;2.80;2.30;;;19.30;58.30;;;;;;5012575;28;20774;-71
2022/07/01 10:23:12;;;;;;;3.23;2.00;;;19.50;58.20;;;;;;5011876;28;20594;-71
2022/07/01 10:25:43;;;;;;;2.67;2.17;;;19.80;54.90;;;;;;5010920;28;20561;-70
2022/07/01 10:28:21;;;;;;;4.87;2.03;;;20.00;54.20;;;;;;5012698;28;20713;-71
2022/07/01 10:30:50;;;;;;;2.50;2.10;;;20.10;48.40;;;;;;5011518;28;21040;-70
2022/07/01 10:33:40;;;;;;;2.53;2.17;;;19.80;54.60;;;;;;5004276;28;20564;-71
2022/07/01 10:36:11;;;;;;;3.27;2.17;;;19.90;51.60;;;;;;5011798;28;20520;-71
2022/07/01 10:39:00;;;;;;;2.70;2.00;;;20.00;49.20;;;;;;5005720;28;20436;-71
2022/07/01 10:41:27;;;;;;;3.60;2.00;;;19.80;51.30;;;;;;4994902;28;20441;-71
2022/07/01 10:43:57;;;;;;;2.43;2.17;;;19.80;49.70;;;;;;5003164;28;20535;-71
2022/07/01 10:46:45;;;;;;;3.30;2.20;;;20.00;48.90;;;;;;5012546;28;20407;-72
2022/07/01 10:49:15;;;;;;;3.50;2.57;;;20.00;50.10;;;;;;4992923;28;20928;-72
2022/07/01 10:51:55;;;;;;;2.47;2.10;;;20.10;49.70;;;;;;5011853;28;20549;-72
2022/07/01 10:54:36;;;;;;;2.97;2.30;;;20.00;47.40;;;;;;5007809;28;20454;-73
2022/07/01 10:57:41;;;;;;;2.27;1.87;;;19.80;51.70;;;;;;5009640;28;20466;-70
2022/07/01 11:00:06;;;;;;;6.83;2.30;;;19.80;51.00;;;;;;4997942;28;20567;-69
2022/07/01 11:02:33;;;;;;;2.53;2.23;;;20.00;48.30;;;;;;5012059;28;21014;-73
2022/07/01 11:05:02;;;;;;;4.07;2.40;;;20.10;47.50;;;;;;4994597;28;20286;-70
2022/07/01 11:07:31;;;;;;;4.53;2.27;;;20.00;49.40;;;;;;5012231;28;20413;-70
2022/07/01 11:09:58;;;;;;;4.40;2.10;;;19.90;52.20;;;;;;5010670;28;20479;-70
2022/07/01 11:12:24;;;;;;;6.93;2.10;;;19.90;49.30;;;;;;5011905;28;20435;-70
2022/07/01 11:14:51;;;;;;;3.03;2.30;;;19.50;51.50;;;;;;5012049;28;21031;-70
2022/07/01 11:17:18;;;;;;;3.57;2.00;;;19.60;53.50;;;;;;5012104;28;20421;-71
2022/07/01 11:19:52;;;;;;;4.37;2.30;;;19.90;54.10;;;;;;5011057;28;20937;-70
2022/07/01 11:22:23;;;;;;;2.77;1.90;;;20.30;52.50;;;;;;5002174;28;20540;-71
2022/07/01 11:24:54;;;;;;;3.80;2.67;;;20.40;49.90;;;;;;4993659;28;20453;-71
2022/07/01 11:27:21;;;;;;;2.30;1.83;;;20.60;54.30;;;;;;5012030;28;20508;-70
2022/07/01 11:29:55;;;;;;;2.20;2.00;;;20.80;48.20;;;;;;5010347;28;20561;-71
2022/07/01 11:32:28;;;;;;;2.30;2.10;;;20.90;48.90;;;;;;5008220;28;20939;-71
2022/07/01 11:34:54;;;;;;;3.93;2.57;;;20.80;47.40;;;;;;5003158;28;20432;-70
2022/07/01 11:40:09;;;;;;;6.60;2.23;;;20.90;46.90;;;;;;5010234;28;21326;-71
2022/07/01 11:42:36;;;;;;;2.97;2.10;;;21.00;49.10;;;;;;5011539;28;20441;-71
2022/07/01 11:45:02;;;;;;;2.83;2.03;;;21.00;49.00;;;;;;5001268;28;20440;-70
2022/07/01 11:47:28;;;;;;;3.47;2.00;;;20.60;48.60;;;;;;5011460;28;20844;-70
2022/07/01 11:49:54;;;;;;;5.70;2.37;;;20.80;49.70;;;;;;5002732;28;20843;-70
2022/07/01 11:52:21;;;;;;;3.30;2.10;;;20.80;51.00;;;;;;5010955;28;20460;-71
2022/07/01 11:54:50;;;;;;;3.23;2.20;;;21.00;46.10;;;;;;5004968;28;20436;-71
2022/07/01 11:57:18;;;;;;;2.53;2.07;;;21.10;49.70;;;;;;5011360;28;20419;-70
2022/07/01 11:59:46;;;;;;;2.27;2.03;;;21.30;47.00;;;;;;4994141;28;20527;-70
2022/07/01 12:02:14;;;;;;;2.47;2.00;;;20.50;44.30;;;;;;5008184;28;20597;-70
2022/07/01 12:04:41;;;;;;;3.20;2.10;;;20.90;47.80;;;;;;5011124;28;20442;-70
2022/07/01 12:07:07;;;;;;;2.60;2.20;;;21.40;45.00;;;;;;5011424;28;20420;-70
2022/07/01 12:09:33;;;;;;;4.53;2.07;;;21.60;46.60;;;;;;5011655;28;20463;-72
2022/07/01 12:11:59;;;;;;;2.40;2.10;;;21.70;46.00;;;;;;5011215;28;20434;-71
2022/07/01 12:14:35;;;;;;;2.20;1.97;;;21.90;42.00;;;;;;5011049;28;20432;-71
2022/07/01 12:17:08;;;;;;;2.87;2.40;;;22.00;43.00;;;;;;5011520;28;20617;-72
2022/07/01 12:19:46;;;;;;;2.83;2.00;;;22.10;41.70;;;;;;5011422;28;20488;-73
2022/07/01 12:22:15;;;;;;;3.53;2.03;;;22.20;41.60;;;;;;5011051;28;20443;-72
2022/07/01 12:24:41;;;;;;;5.90;2.53;;;22.10;42.50;;;;;;5009632;28;20440;-72
2022/07/01 12:27:08;;;;;;;2.80;2.10;;;22.30;46.00;;;;;;5009336;28;20440;-72
2022/07/01 12:29:39;;;;;;;2.57;2.00;;;22.80;41.40;;;;;;5008729;28;20470;-72
2022/07/01 12:32:06;;;;;;;7.30;2.20;;;23.00;40.40;;;;;;5008503;28;20467;-72
2022/07/01 12:34:55;;;;;;;2.67;2.30;;;23.10;37.30;;;;;;5006201;28;20442;-71
2022/07/01 12:37:27;;;;;;;2.83;2.40;;;23.50;35.20;;;;;;5004004;28;20446;-73
2022/07/01 12:39:59;;;;;;;5.93;2.00;;;23.20;35.90;;;;;;5011889;28;20536;-71
2022/07/01 12:42:39;;;;;;;3.40;2.00;;;22.30;35.00;;;;;;5009544;28;20462;-70
2022/07/01 12:45:10;;;;;;;2.30;1.93;;;22.60;34.40;;;;;;5009025;28;20474;-71
2022/07/01 12:47:42;;;;;;;3.83;1.80;;;23.50;34.50;;;;;;5007512;28;20448;-71
2022/07/01 12:50:35;;;;;;;3.50;1.90;;;23.50;32.80;;;;;;5009097;28;20478;-71
2022/07/01 12:53:04;;;;;;;2.63;2.07;;;23.30;33.40;;;;;;5011141;28;20466;-71
2022/07/01 12:55:39;;;;;;;2.50;2.07;;;23.80;34.70;;;;;;5014667;28;20415;-70
2022/07/01 12:58:10;;;;;;;3.27;2.00;;;24.10;33.80;;;;;;5013825;28;20431;-71
2022/07/01 13:00:38;;;;;;;2.87;2.00;;;24.20;32.60;;;;;;5014735;28;20430;-71
2022/07/01 13:03:05;;;;;;;2.73;2.10;;;24.30;32.00;;;;;;5013791;28;20447;-71